Time;durP1;ratioP1;P1;durP2;ratioP2;P2;SDS_P1;SDS_P2;PMS_P1;PMS_P2;Temp;Humidity;BMP_temperature;BMP_pressure;BME280_temperature;BME280_humidity;BME280_pressure;Samples;Min_cycle;Max_cycle;Signal;HPM_P1;HPM_P2
2021/01/26 00:01:28;;;;;;;50.25;26.85;;;;;;;1.61;74.65;99435.84;2198400;80;31046;-67
2021/01/26 00:04:30;;;;;;;49.80;28.25;;;;;;;1.64;74.71;99438.41;2155714;80;33117;-67
2021/01/26 00:07:32;;;;;;;50.78;29.10;;;;;;;1.65;74.71;99447.63;2176676;80;30110;-66
2021/01/26 00:10:34;;;;;;;55.48;28.40;;;;;;;1.67;74.80;99442.30;2192898;80;27635;-67
2021/01/26 00:13:36;;;;;;;49.13;26.42;;;;;;;1.69;74.73;99447.08;2151571;81;28755;-63
2021/01/26 00:16:38;;;;;;;50.48;27.02;;;;;;;1.72;74.72;99452.29;2185983;80;32023;-63
2021/01/26 00:19:40;;;;;;;43.25;25.55;;;;;;;1.74;74.75;99452.23;2161812;80;34132;-67
2021/01/26 00:22:43;;;;;;;42.60;25.60;;;;;;;1.76;74.71;99455.70;2184007;80;29446;-63
2021/01/26 00:25:45;;;;;;;48.83;27.02;;;;;;;1.74;74.67;99453.55;2173534;80;27679;-62
2021/01/26 00:28:47;;;;;;;41.88;23.38;;;;;;;1.72;74.69;99455.36;2190790;79;28838;-62
2021/01/26 00:31:49;;;;;;;41.42;24.25;;;;;;;1.69;74.60;99455.00;2174831;80;32147;-62
2021/01/26 00:34:52;;;;;;;36.88;21.15;;;;;;;1.66;74.62;99459.89;2170200;80;33111;-65
2021/01/26 00:37:56;;;;;;;41.60;22.02;;;;;;;1.65;74.60;99455.98;2195156;80;29225;-64
2021/01/26 00:40:57;;;;;;;40.85;21.80;;;;;;;1.62;74.62;99451.67;2195392;80;27671;-64
2021/01/26 00:43:59;;;;;;;37.75;21.35;;;;;;;1.65;74.78;99459.95;2177426;80;28902;-63
2021/01/26 00:47:01;;;;;;;34.58;21.17;;;;;;;1.66;74.75;99459.04;2188513;80;31150;-64
2021/01/26 00:50:08;;;;;;;38.45;20.97;;;;;;;1.65;74.72;99456.88;2188005;80;33138;-64
2021/01/26 00:53:10;;;;;;;40.83;22.37;;;;;;;1.65;74.77;99454.66;2191269;80;29144;-64
2021/01/26 00:56:12;;;;;;;40.28;22.55;;;;;;;1.67;74.89;99462.09;2194358;80;27809;-64
2021/01/26 00:59:14;;;;;;;42.93;22.10;;;;;;;1.69;74.90;99460.72;2172856;81;28162;-64
2021/01/26 01:02:17;;;;;;;47.90;23.45;;;;;;;1.69;74.90;99466.89;2186079;80;32187;-65
2021/01/26 01:05:19;;;;;;;41.50;22.32;;;;;;;1.69;74.95;99467.32;2155775;80;34013;-65
2021/01/26 01:08:21;;;;;;;47.48;23.67;;;;;;;1.72;74.93;99464.61;2166370;81;29169;-64
2021/01/26 01:11:22;;;;;;;43.17;20.75;;;;;;;1.73;75.02;99468.55;2185045;80;27732;-65
2021/01/26 01:14:26;;;;;;;41.45;22.05;;;;;;;1.77;75.02;99468.00;2195818;80;29969;-69
2021/01/26 01:17:28;;;;;;;35.40;20.72;;;;;;;1.79;75.09;99465.72;2191205;80;31929;-64
2021/01/26 01:20:30;;;;;;;36.42;20.32;;;;;;;1.82;75.14;99463.00;2142775;81;33097;-64
2021/01/26 01:23:32;;;;;;;43.17;23.70;;;;;;;1.87;75.03;99460.23;2194548;80;29223;-64
2021/01/26 01:26:34;;;;;;;38.55;20.57;;;;;;;1.87;74.99;99459.37;2149914;81;27656;-63
2021/01/26 01:29:36;;;;;;;36.93;22.35;;;;;;;1.86;74.89;99457.17;2172088;81;28836;-63
2021/01/26 01:32:37;;;;;;;43.87;22.67;;;;;;;1.85;74.89;99459.39;2194435;80;32129;-64
2021/01/26 01:35:39;;;;;;;37.25;20.48;;;;;;;1.87;74.85;99463.33;2150383;81;34112;-64
2021/01/26 01:38:41;;;;;;;45.60;24.77;;;;;;;1.85;74.80;99468.64;2200964;80;29170;-64
2021/01/26 01:41:42;;;;;;;36.80;19.77;;;;;;;1.82;74.82;99465.64;2151084;81;27782;-67
2021/01/26 01:44:44;;;;;;;37.48;20.17;;;;;;;1.81;74.84;99463.05;2184015;78;29787;-65
2021/01/26 01:47:54;;;;;;;32.55;20.08;;;;;;;1.78;74.77;99462.66;2193275;80;31141;-67
2021/01/26 01:51:07;;;;;;;39.92;20.80;;;;;;;1.78;74.81;99460.49;2210448;80;34076;-68
2021/01/26 01:54:20;;;;;;;32.30;19.02;;;;;;;1.80;74.75;99463.95;2194858;80;29165;-65
2021/01/26 01:57:32;;;;;;;33.08;19.42;;;;;;;1.83;74.82;99473.09;2206610;80;27805;-64
2021/01/26 02:00:35;;;;;;;33.60;20.35;;;;;;;1.85;74.76;99469.11;2196625;80;30541;-64
2021/01/26 02:03:44;;;;;;;29.80;19.10;;;;;;;1.86;74.78;99474.34;2191156;80;31141;-64
2021/01/26 02:06:49;;;;;;;30.20;19.87;;;;;;;1.88;74.83;99468.56;2197229;80;33097;-64
2021/01/26 02:09:51;;;;;;;36.90;21.30;;;;;;;1.89;74.75;99473.41;2192294;80;30405;-66
2021/01/26 02:12:52;;;;;;;35.40;20.70;;;;;;;1.89;74.74;99475.58;2178417;81;27636;-69
2021/01/26 02:15:57;;;;;;;33.73;20.52;;;;;;;1.86;74.61;99473.48;2176623;80;28886;-65
2021/01/26 02:19:58;;;;;;;31.37;19.90;;;;;;;1.81;74.55;99467.02;2182381;80;31215;-65
2021/01/26 02:23:23;;;;;;;31.33;18.87;;;;;;;1.77;74.65;99471.95;2192912;80;33108;-64
2021/01/26 02:27:11;;;;;;;39.23;20.37;;;;;;;1.76;74.76;99480.78;2189640;80;30553;-64
2021/01/26 02:30:27;;;;;;;33.95;19.70;;;;;;;1.76;74.73;99481.64;2200939;80;27679;-65
2021/01/26 02:33:57;;;;;;;32.00;19.37;;;;;;;1.78;74.73;99489.54;2198436;80;28817;-64
2021/01/26 02:37:30;;;;;;;39.45;20.57;;;;;;;1.75;74.62;99491.78;2200978;80;31656;-64
2021/01/26 02:40:47;;;;;;;36.42;19.35;;;;;;;1.75;74.75;99490.47;2188886;80;33170;-64
2021/01/26 02:44:12;;;;;;;31.73;18.15;;;;;;;1.76;74.64;99492.67;2183777;79;30100;-65
2021/01/26 02:47:25;;;;;;;35.20;20.57;;;;;;;1.75;74.71;99496.22;2131980;81;27680;-65
2021/01/26 02:50:55;;;;;;;34.78;20.05;;;;;;;1.73;74.68;99498.91;2176947;80;28904;-64
2021/01/26 02:54:07;;;;;;;37.28;19.87;;;;;;;1.70;74.68;99497.66;2177718;81;31048;-65
2021/01/26 02:57:29;;;;;;;32.75;17.45;;;;;;;1.69;74.73;99502.53;2153116;81;33133;-65
2021/01/26 03:00:43;;;;;;;31.17;17.70;;;;;;;1.74;74.72;99499.30;2248098;78;27700;-65
2021/01/26 03:03:51;;;;;;;28.75;17.15;;;;;;;1.70;74.58;99501.62;2226749;79;27688;-65
2021/01/26 03:06:54;;;;;;;29.65;17.98;;;;;;;1.72;74.82;99505.09;2177712;80;28831;-65
2021/01/26 03:10:01;;;;;;;33.00;18.42;;;;;;;1.75;74.78;99505.45;2180433;80;31147;-66
2021/01/26 03:13:06;;;;;;;31.30;19.30;;;;;;;1.77;74.76;99511.56;2150192;81;34132;-66
2021/01/26 03:16:12;;;;;;;30.10;18.52;;;;;;;1.77;74.65;99519.02;2179532;81;28614;-65
2021/01/26 03:19:18;;;;;;;31.48;19.00;;;;;;;1.77;74.68;99518.17;2150445;81;27709;-67
2021/01/26 03:22:24;;;;;;;31.48;18.55;;;;;;;1.74;74.65;99514.28;2207404;80;28846;-66
2021/01/26 03:25:27;;;;;;;31.05;19.00;;;;;;;1.72;74.62;99520.05;2216306;80;32128;-66
2021/01/26 03:28:30;;;;;;;34.33;17.42;;;;;;;1.71;74.55;99510.39;2218206;80;34054;-66
2021/01/26 03:31:39;;;;;;;31.07;17.70;;;;;;;1.69;74.56;99518.81;2215032;80;28928;-67
2021/01/26 03:34:41;;;;;;;31.35;18.82;;;;;;;1.70;74.59;99521.86;2218276;80;28088;-67
2021/01/26 03:37:48;;;;;;;33.60;18.27;;;;;;;1.69;74.56;99519.69;2218139;80;29423;-67
2021/01/26 03:40:52;;;;;;;30.20;17.73;;;;;;;1.67;74.43;99524.14;2217295;80;31983;-68
2021/01/26 03:43:54;;;;;;;30.00;17.57;;;;;;;1.65;74.53;99525.95;2215803;80;33109;-67
2021/01/26 03:47:27;;;;;;;32.60;19.35;;;;;;;1.63;74.52;99538.31;2179601;81;29799;-66
2021/01/26 03:50:57;;;;;;;30.02;18.87;;;;;;;1.61;74.58;99524.28;2180843;80;27778;-66
2021/01/26 03:54:08;;;;;;;36.05;18.67;;;;;;;1.62;74.64;99538.78;2178838;81;29611;-66
2021/01/26 03:57:21;;;;;;;30.90;17.98;;;;;;;1.61;74.54;99535.73;2197478;80;31206;-65
2021/01/26 04:00:50;;;;;;;33.10;18.82;;;;;;;1.60;74.56;99537.06;2170884;81;34072;-67
2021/01/26 04:04:16;;;;;;;29.27;17.80;;;;;;;1.58;74.54;99541.08;2169585;80;28885;-65
2021/01/26 04:07:31;;;;;;;33.18;18.73;;;;;;;1.59;74.64;99540.61;2169573;82;28244;-64
2021/01/26 04:10:36;;;;;;;29.55;19.50;;;;;;;1.60;74.59;99541.03;2187538;80;29810;-65
2021/01/26 04:13:49;;;;;;;30.55;19.65;;;;;;;1.58;74.47;99539.77;2137198;82;32187;-65
2021/01/26 04:17:09;;;;;;;32.55;20.45;;;;;;;1.57;74.49;99551.22;2195177;80;33307;-66
2021/01/26 04:20:27;;;;;;;34.98;19.48;;;;;;;1.54;74.52;99542.05;2168421;82;29382;-65
2021/01/26 04:23:31;;;;;;;35.68;19.40;;;;;;;1.51;74.40;99546.08;2168885;82;27729;-66
2021/01/26 04:26:34;;;;;;;37.73;20.43;;;;;;;1.46;74.41;99551.95;2178755;81;28823;-66
2021/01/26 04:29:39;;;;;;;39.42;21.62;;;;;;;1.45;74.50;99548.42;2178837;81;32137;-65
2021/01/26 04:32:41;;;;;;;33.10;20.45;;;;;;;1.42;74.54;99551.60;2178584;81;33968;-66
2021/01/26 04:35:43;;;;;;;37.28;20.23;;;;;;;1.41;74.53;99553.36;2178661;81;29774;-65
2021/01/26 04:38:45;;;;;;;33.53;20.15;;;;;;;1.36;74.35;99553.47;2178883;81;27680;-65
2021/01/26 04:42:09;;;;;;;37.28;20.08;;;;;;;1.31;74.51;99551.42;2212930;80;28821;-69
2021/01/26 04:45:45;;;;;;;34.85;20.00;;;;;;;1.31;74.49;99554.05;2217180;80;32195;-63
2021/01/26 04:48:55;;;;;;;29.10;18.85;;;;;;;1.31;74.47;99559.77;2190061;80;33617;-67
2021/01/26 04:52:38;;;;;;;40.17;20.37;;;;;;;1.28;74.52;99560.72;2177320;80;28868;-62
2021/01/26 04:56:06;;;;;;;36.48;20.55;;;;;;;1.31;74.64;99567.69;2104422;83;27856;-63
2021/01/26 04:59:16;;;;;;;34.13;19.87;;;;;;;1.30;74.48;99565.95;2089898;84;29609;-63
2021/01/26 05:02:47;;;;;;;37.10;19.60;;;;;;;1.29;74.55;99567.73;2111449;84;32139;-65
2021/01/26 05:05:53;;;;;;;40.50;19.87;;;;;;;1.26;74.33;99571.76;2111228;84;33314;-66
2021/01/26 05:08:55;;;;;;;32.88;20.00;;;;;;;1.24;74.51;99576.20;2122455;83;29836;-66
2021/01/26 05:11:58;;;;;;;37.33;20.82;;;;;;;1.27;74.53;99577.45;2103372;84;27897;-65
2021/01/26 05:15:01;;;;;;;34.95;20.70;;;;;;;1.29;74.52;99576.09;2080611;84;29494;-66
2021/01/26 05:18:13;;;;;;;32.78;20.00;;;;;;;1.31;74.50;99581.77;2104211;84;32152;-66
2021/01/26 05:21:37;;;;;;;30.80;19.25;;;;;;;1.36;74.57;99579.02;2103578;84;33110;-66
2021/01/26 05:25:00;;;;;;;40.17;21.40;;;;;;;1.44;74.49;99581.00;2297429;77;27646;-66
2021/01/26 05:28:03;;;;;;;32.25;19.65;;;;;;;1.42;74.58;99580.16;2230992;78;28132;-66
2021/01/26 05:31:12;;;;;;;33.90;20.60;;;;;;;1.43;74.46;99581.05;2208064;80;28817;-66
2021/01/26 05:34:13;;;;;;;38.08;20.57;;;;;;;1.40;74.35;99582.00;2255652;78;31139;-67
2021/01/26 05:37:15;;;;;;;;;;;;;;;1.40;74.43;99590.35;2244375;78;34126;-66
2021/01/26 05:40:28;;;;;;;43.00;22.10;;;;;;;1.39;74.50;99586.86;2251086;78;29728;-66
2021/01/26 05:43:33;;;;;;;36.83;20.57;;;;;;;1.39;74.49;99597.85;2257957;78;27689;-66
2021/01/26 05:46:44;;;;;;;36.90;21.10;;;;;;;1.39;74.51;99599.17;2257502;78;28814;-66
2021/01/26 05:49:46;;;;;;;34.65;19.67;;;;;;;1.39;74.48;99591.25;2256859;78;32132;-65
2021/01/26 05:52:49;;;;;;;38.30;24.55;;;;;;;1.43;74.59;99596.41;2257669;78;34111;-65
2021/01/26 05:56:00;;;;;;;37.48;23.05;;;;;;;1.45;74.54;99597.72;2273097;77;29910;-68
2021/01/26 05:59:27;;;;;;;41.63;24.12;;;;;;;1.48;74.50;99604.25;2274983;77;27902;-67
2021/01/26 06:02:30;;;;;;;42.35;24.12;;;;;;;1.47;74.46;99602.52;2288355;77;29797;-67
2021/01/26 06:05:32;;;;;;;48.15;27.05;;;;;;;1.47;74.46;99602.52;2260904;78;31562;-67
2021/01/26 06:08:55;;;;;;;43.40;24.70;;;;;;;1.47;74.41;99608.64;2262582;78;33127;-66
2021/01/26 06:12:17;;;;;;;47.50;26.82;;;;;;;1.44;74.36;99612.67;2257506;78;28854;-63
2021/01/26 06:15:29;;;;;;;46.25;27.15;;;;;;;1.42;74.38;99618.90;2173740;81;28149;-65
2021/01/26 06:18:32;;;;;;;45.38;27.45;;;;;;;1.39;74.46;99615.89;2174501;81;28820;-66
2021/01/26 06:21:52;;;;;;;48.20;29.00;;;;;;;1.38;74.45;99618.55;2215829;80;31231;-66
2021/01/26 06:24:55;;;;;;;44.05;24.67;;;;;;;1.39;74.51;99614.57;2192100;80;33117;-65
2021/01/26 06:28:29;;;;;;;46.60;27.17;;;;;;;1.41;74.54;99623.30;2211923;80;28936;-64
2021/01/26 06:31:39;;;;;;;43.75;26.62;;;;;;;1.42;74.45;99625.50;2184870;80;27686;-66
2021/01/26 06:35:14;;;;;;;48.70;27.60;;;;;;;1.41;74.42;99627.25;2157215;81;28819;-65
2021/01/26 06:38:37;;;;;;;36.07;22.40;;;;;;;1.40;74.40;99632.58;2187734;81;31149;-66
2021/01/26 06:41:47;;;;;;;43.28;26.48;;;;;;;1.36;74.40;99641.02;2164988;82;32969;-65
2021/01/26 06:45:18;;;;;;;48.48;28.35;;;;;;;1.36;74.51;99635.75;2187456;81;29784;-65
2021/01/26 06:48:40;;;;;;;45.12;28.83;;;;;;;1.34;74.42;99630.95;2164680;82;27666;-66
2021/01/26 06:52:00;;;;;;;61.68;32.48;;;;;;;1.34;74.44;99631.80;2187515;81;29729;-65
2021/01/26 06:55:36;;;;;;;58.80;33.50;;;;;;;1.33;74.47;99632.70;2165094;82;31136;-66
2021/01/26 06:58:50;;;;;;;57.78;32.13;;;;;;;1.35;74.44;99631.38;2175852;81;36069;-65
2021/01/26 07:02:39;;;;;;;55.78;29.55;;;;;;;1.31;74.37;99634.54;2169542;81;28858;-65
2021/01/26 07:06:07;;;;;;;52.27;30.80;;;;;;;1.31;74.43;99633.22;2162525;81;27619;-67
2021/01/26 07:09:36;;;;;;;50.70;30.68;;;;;;;1.28;74.41;99633.28;2176459;81;29838;-67
2021/01/26 07:13:19;;;;;;;48.58;28.15;;;;;;;1.25;74.43;99640.38;2154234;82;32128;-67
2021/01/26 07:16:55;;;;;;;51.80;29.72;;;;;;;1.20;74.56;99642.69;2154660;81;33132;-66
2021/01/26 07:20:09;;;;;;;52.67;29.42;;;;;;;1.23;74.70;99648.80;2109494;84;28873;-62
2021/01/26 07:23:54;;;;;;;47.17;28.27;;;;;;;1.27;74.83;99647.38;2107679;84;28032;-66
2021/01/26 07:27:17;;;;;;;53.37;28.23;;;;;;;1.30;74.77;99653.91;2099617;84;28842;-65
2021/01/26 07:30:30;;;;;;;48.90;28.65;;;;;;;1.35;74.78;99659.08;2062941;86;31239;-65
2021/01/26 07:34:00;;;;;;;49.67;27.80;;;;;;;1.43;74.77;99657.59;2296647;75;27661;-66
2021/01/26 07:37:13;;;;;;;48.35;28.40;;;;;;;1.39;74.74;99665.14;2235717;78;27964;-65
2021/01/26 07:40:26;;;;;;;51.77;30.43;;;;;;;1.39;74.86;99666.03;2246313;78;28821;-65
2021/01/26 07:43:50;;;;;;;43.40;28.27;;;;;;;1.37;74.80;99669.16;2247433;78;32109;-74
2021/01/26 07:46:58;;;;;;;45.98;27.52;;;;;;;1.39;74.90;99674.38;2237141;78;33319;-71
2021/01/26 07:50:34;;;;;;;44.77;26.33;;;;;;;1.46;75.04;99672.04;2199907;80;27799;-64
2021/01/26 07:53:48;;;;;;;39.90;26.10;;;;;;;1.57;75.08;99678.41;2152092;81;27708;-71
2021/01/26 07:56:52;;;;;;;39.45;26.20;;;;;;;1.69;75.00;99673.27;2179962;80;28893;-62
2021/01/26 07:59:56;;;;;;;;;;;;;;;1.77;74.85;99679.25;2142676;81;32629;-63
2021/01/26 08:03:00;;;;;;;43.52;26.23;;;;;;;1.81;74.78;99675.64;2189489;80;33332;-67
2021/01/26 08:06:04;;;;;;;43.63;26.57;;;;;;;1.85;74.68;99678.59;2136055;82;28914;-64
2021/01/26 08:09:14;;;;;;;43.55;25.95;;;;;;;1.87;74.62;99686.04;2160694;82;27775;-62
2021/01/26 08:12:34;;;;;;;64.07;34.43;;;;;;;1.88;74.55;99681.64;2144829;80;29305;-63
2021/01/26 08:15:40;;;;;;;52.70;29.72;;;;;;;1.91;74.46;99684.19;2146513;81;31171;-65
2021/01/26 08:18:43;;;;;;;60.50;30.88;;;;;;;1.93;74.32;99682.38;2189773;80;34113;-63
2021/01/26 08:21:47;;;;;;;50.40;29.72;;;;;;;1.87;74.20;99685.19;2171731;81;28855;-62
2021/01/26 08:25:00;;;;;;;64.90;34.03;;;;;;;1.85;74.29;99686.98;2181302;80;27713;-63
2021/01/26 08:28:08;;;;;;;71.33;36.58;;;;;;;1.83;74.20;99692.29;2159316;81;29731;-60
2021/01/26 08:31:40;;;;;;;74.40;37.13;;;;;;;1.82;74.27;99694.08;2175642;80;32677;-62
2021/01/26 08:34:43;;;;;;;43.38;25.12;;;;;;;1.84;74.27;99699.31;2143298;82;33113;-59
2021/01/26 08:37:53;;;;;;;42.83;25.08;;;;;;;1.90;74.34;99703.14;2124711;81;28864;-62
2021/01/26 08:41:03;;;;;;;40.52;24.57;;;;;;;1.91;74.10;99700.92;2205898;80;27681;-66
2021/01/26 08:44:11;;;;;;;43.70;26.75;;;;;;;1.99;74.22;99703.84;2180384;81;28835;-62
2021/01/26 08:47:46;;;;;;;37.63;24.32;;;;;;;2.03;74.08;99701.52;2203833;80;31138;-62
2021/01/26 08:50:56;;;;;;;39.58;23.15;;;;;;;2.07;74.02;99705.83;2068360;86;33533;-61
2021/01/26 08:54:01;;;;;;;41.30;23.10;;;;;;;2.09;73.99;99702.70;2106439;84;30203;-64
2021/01/26 08:57:29;;;;;;;35.23;22.70;;;;;;;2.11;73.85;99707.03;2046282;86;27694;-63
2021/01/26 09:00:47;;;;;;;39.10;20.77;;;;;;;2.13;73.67;99710.50;2086679;84;29241;-62
2021/01/26 09:03:54;;;;;;;38.92;23.77;;;;;;;2.09;73.53;99707.98;2102813;83;31162;-63
2021/01/26 09:06:56;;;;;;;48.55;28.40;;;;;;;2.10;73.62;99721.61;2086650;83;34077;-63
2021/01/26 09:09:58;;;;;;;48.00;25.27;;;;;;;2.06;73.34;99710.26;2097037;83;29729;-63
2021/01/26 09:13:27;;;;;;;40.20;25.12;;;;;;;2.09;73.53;99714.59;2096833;83;27690;-65
2021/01/26 09:16:31;;;;;;;51.42;29.52;;;;;;;2.13;73.34;99717.58;2098233;83;28652;-66
2021/01/26 09:19:49;;;;;;;33.08;19.60;;;;;;;2.14;73.17;99715.36;2100702;83;31147;-63
2021/01/26 09:23:01;;;;;;;30.23;18.30;;;;;;;2.18;73.00;99717.46;2059120;85;33165;-63
2021/01/26 09:26:18;;;;;;;37.88;23.90;;;;;;;2.22;72.91;99719.98;2098305;80;29068;-62
2021/01/26 09:29:26;;;;;;;41.73;22.60;;;;;;;2.27;72.93;99727.35;2160044;80;27794;-62
2021/01/26 09:32:28;;;;;;;43.55;22.40;;;;;;;2.31;73.03;99730.78;2181172;80;28992;-63
2021/01/26 09:35:43;;;;;;;37.55;22.80;;;;;;;2.37;72.58;99731.08;2174045;80;32535;-63
2021/01/26 09:38:49;;;;;;;34.92;20.57;;;;;;;2.39;72.68;99734.11;2171924;80;33096;-62
2021/01/26 09:41:51;;;;;;;37.42;22.93;;;;;;;2.41;72.61;99730.95;2167075;80;29112;-62
2021/01/26 09:45:03;;;;;;;43.28;22.73;;;;;;;2.42;72.64;99731.84;2173987;80;27711;-63
2021/01/26 09:48:06;;;;;;;36.08;21.65;;;;;;;2.45;72.45;99733.52;2140189;81;29761;-64
2021/01/26 09:51:28;;;;;;;38.45;23.67;;;;;;;2.46;72.48;99732.62;2192859;79;31131;-64
2021/01/26 09:54:38;;;;;;;31.17;19.05;;;;;;;2.47;72.57;99733.92;2172810;80;34006;-65
2021/01/26 09:57:41;;;;;;;32.73;19.27;;;;;;;2.48;72.08;99736.09;2175446;80;28866;-63
2021/01/26 10:00:44;;;;;;;29.35;18.05;;;;;;;2.48;72.24;99735.66;2178408;80;27665;-64
2021/01/26 10:03:47;;;;;;;31.75;17.52;;;;;;;2.51;71.91;99733.38;2166975;79;28913;-63
2021/01/26 10:06:51;;;;;;;26.40;18.48;;;;;;;2.54;72.01;99745.20;2166713;79;31268;-64
2021/01/26 10:09:58;;;;;;;34.27;20.82;;;;;;;2.60;72.02;99737.56;2189560;80;34110;-63
2021/01/26 10:13:32;;;;;;;34.92;19.02;;;;;;;2.70;72.14;99743.02;2147779;80;31185;-62
2021/01/26 10:16:38;;;;;;;41.05;22.15;;;;;;;2.77;71.67;99739.31;2189524;80;27686;-65
2021/01/26 10:19:41;;;;;;;28.57;18.10;;;;;;;2.82;71.30;99738.71;2153797;80;29745;-64
2021/01/26 10:22:45;;;;;;;31.80;19.57;;;;;;;2.85;71.35;99746.57;2188030;80;31611;-65
2021/01/26 10:25:48;;;;;;;32.48;20.20;;;;;;;2.91;71.39;99748.65;2158815;82;33097;-65
2021/01/26 10:29:19;;;;;;;29.67;17.30;;;;;;;2.88;70.85;99740.35;2152366;81;28865;-65
2021/01/26 10:32:44;;;;;;;27.35;17.30;;;;;;;2.84;70.56;99738.22;2186659;80;27758;-64
2021/01/26 10:35:46;;;;;;;24.15;15.48;;;;;;;2.86;70.94;99735.08;2142312;80;29719;-65
2021/01/26 10:38:49;;;;;;;25.25;15.68;;;;;;;2.91;70.68;99740.24;2176714;80;32803;-66
2021/01/26 10:42:15;;;;;;;25.25;16.10;;;;;;;2.91;70.46;99739.39;2138758;81;33134;-66
2021/01/26 10:45:16;;;;;;;30.07;16.53;;;;;;;2.94;70.23;99741.48;2174741;81;28890;-66
2021/01/26 10:48:33;;;;;;;24.37;17.12;;;;;;;2.93;70.01;99739.75;2111768;83;28124;-66
2021/01/26 10:51:38;;;;;;;27.00;16.48;;;;;;;2.94;70.22;99748.57;2175314;81;28826;-66
2021/01/26 10:54:40;;;;;;;;;;;;;;;2.93;69.83;99746.83;2141664;83;31153;-68
2021/01/26 10:57:44;;;;;;;23.50;15.85;;;;;;;2.94;70.01;99748.57;2175325;81;33209;-69
2021/01/26 11:00:46;;;;;;;31.50;18.35;;;;;;;2.95;70.04;99748.52;2139142;81;28847;-66
2021/01/26 11:03:50;;;;;;;23.50;16.77;;;;;;;3.00;70.16;99737.80;2174921;80;27593;-66
2021/01/26 11:06:52;;;;;;;28.20;17.17;;;;;;;3.03;70.00;99740.37;2176996;81;28820;-64
2021/01/26 11:09:54;;;;;;;30.10;17.42;;;;;;;3.06;69.99;99736.31;2140271;83;31157;-63
2021/01/26 11:12:59;;;;;;;24.85;16.32;;;;;;;3.12;70.03;99737.48;2168082;81;33174;-62
2021/01/26 11:16:02;;;;;;;25.12;15.90;;;;;;;3.15;70.05;99736.05;2177371;81;28927;-64
2021/01/26 11:19:05;;;;;;;29.55;16.27;;;;;;;3.24;69.81;99732.73;2178355;81;28210;-64
2021/01/26 11:22:07;;;;;;;27.52;17.32;;;;;;;3.30;69.76;99728.14;2178349;81;28822;-64
2021/01/26 11:25:11;;;;;;;28.80;17.17;;;;;;;3.35;69.71;99731.97;2178222;80;31559;-64
2021/01/26 11:28:13;;;;;;;29.70;17.35;;;;;;;3.40;69.67;99732.70;2178222;81;33071;-65
2021/01/26 11:31:17;;;;;;;31.60;17.42;;;;;;;3.48;69.48;99731.16;2178045;81;28857;-66
2021/01/26 11:34:20;;;;;;;35.88;20.43;;;;;;;3.54;69.48;99734.08;2178321;81;28109;-65
2021/01/26 11:37:22;;;;;;;31.42;19.32;;;;;;;3.57;69.20;99734.84;2178319;81;28808;-67
2021/01/26 11:40:25;;;;;;;34.40;19.52;;;;;;;3.56;69.19;99735.75;2178032;80;31076;-67
2021/01/26 11:43:29;;;;;;;31.68;17.50;;;;;;;3.60;69.35;99727.28;2178153;81;33111;-66
2021/01/26 11:46:31;;;;;;;25.92;17.12;;;;;;;3.64;69.01;99727.61;2177270;81;29872;-65
2021/01/26 11:49:33;;;;;;;28.90;15.75;;;;;;;3.67;69.15;99736.76;2178244;81;27590;-66
2021/01/26 11:52:36;;;;;;;27.80;15.88;;;;;;;3.68;68.64;99733.20;2178187;81;28830;-65
2021/01/26 11:55:38;;;;;;;40.38;26.10;;;;;;;3.67;68.60;99727.48;2178211;81;32113;-66
2021/01/26 11:58:42;;;;;;;23.83;15.30;;;;;;;3.70;68.48;99727.87;2178261;81;32321;-66
2021/01/26 12:01:44;;;;;;;23.57;15.45;;;;;;;3.71;68.41;99722.52;2178136;81;28895;-64
2021/01/26 12:04:47;;;;;;;27.02;15.25;;;;;;;3.74;68.39;99725.07;2178103;81;27547;-65
2021/01/26 12:07:49;;;;;;;22.15;13.90;;;;;;;3.80;68.44;99729.31;2178169;81;28879;-65
2021/01/26 12:10:52;;;;;;;23.45;14.18;;;;;;;3.82;68.04;99724.83;2177045;81;31139;-66
2021/01/26 12:13:54;;;;;;;18.15;12.73;;;;;;;3.85;68.24;99719.89;2165639;80;34062;-63
2021/01/26 12:16:56;;;;;;;26.02;14.33;;;;;;;3.90;68.02;99719.30;2177839;81;29753;-62
2021/01/26 12:19:59;;;;;;;22.95;14.07;;;;;;;3.95;68.30;99724.00;2178443;81;28172;-62
2021/01/26 12:23:02;;;;;;;27.52;14.15;;;;;;;3.97;67.63;99723.50;2178449;81;28901;-62
2021/01/26 12:26:07;;;;;;;24.70;15.13;;;;;;;3.97;67.86;99719.97;2178405;81;32316;-62
2021/01/26 12:29:11;;;;;;;35.73;18.75;;;;;;;4.04;67.85;99721.52;2178375;81;29220;-62
2021/01/26 12:32:13;;;;;;;52.40;22.30;;;;;;;4.07;67.71;99720.95;2178339;81;30221;-61
2021/01/26 12:35:20;;;;;;;69.80;31.17;;;;;;;4.12;67.54;99716.81;2178478;81;27555;-62
2021/01/26 12:38:23;;;;;;;40.00;20.37;;;;;;;4.24;67.90;99711.10;2177665;81;28860;-61
2021/01/26 12:41:25;;;;;;;40.28;30.77;;;;;;;4.35;67.61;99713.88;2178040;81;31120;-62
2021/01/26 12:44:28;;;;;;;88.67;48.23;;;;;;;4.39;67.30;99714.16;2178229;81;33618;-65
2021/01/26 12:47:32;;;;;;;27.30;16.35;;;;;;;4.43;67.03;99715.80;2178206;81;29112;-62
2021/01/26 12:50:37;;;;;;;24.90;13.88;;;;;;;4.47;67.05;99712.60;2178516;81;28134;-62
2021/01/26 12:53:40;;;;;;;42.98;20.57;;;;;;;4.52;66.57;99719.48;2178372;81;28821;-62
2021/01/26 12:56:43;;;;;;;21.12;12.40;;;;;;;4.54;66.53;99721.63;2178413;81;31131;-63
2021/01/26 12:59:47;;;;;;;60.50;28.87;;;;;;;4.59;66.51;99720.58;2178264;81;33114;-62
2021/01/26 13:02:50;;;;;;;57.62;27.15;;;;;;;4.62;66.36;99718.70;2177746;80;29261;-64
2021/01/26 13:05:54;;;;;;;28.57;17.37;;;;;;;4.69;65.89;99714.91;2206288;79;27584;-63
2021/01/26 13:08:57;;;;;;;38.10;21.53;;;;;;;4.72;66.08;99721.88;2138845;83;28873;-64
2021/01/26 13:12:00;;;;;;;65.70;34.15;;;;;;;4.78;65.89;99720.83;2175250;80;31598;-64
2021/01/26 13:15:05;;;;;;;47.53;24.90;;;;;;;4.76;65.67;99722.66;2178034;81;33097;-64
2021/01/26 13:18:08;;;;;;;;;;;;;;;4.72;65.69;99712.59;2181053;81;28953;-63
2021/01/26 13:21:11;;;;;;;34.88;18.05;;;;;;;4.65;65.40;99710.61;2178415;81;27661;-65
2021/01/26 13:24:13;;;;;;;32.60;17.37;;;;;;;4.58;65.50;99716.19;2178068;81;29870;-63
2021/01/26 13:27:16;;;;;;;34.65;19.30;;;;;;;4.49;65.24;99726.66;2178012;81;31144;-65
2021/01/26 13:30:22;;;;;;;38.48;19.23;;;;;;;4.36;65.31;99722.24;2178167;81;33917;-65
2021/01/26 13:33:24;;;;;;;;;;;;;;;4.28;65.32;99721.61;2180793;81;29172;-64
2021/01/26 13:36:28;;;;;;;32.35;18.25;;;;;;;4.20;65.27;99722.75;2194921;80;27651;-64
2021/01/26 13:39:30;;;;;;;27.32;14.83;;;;;;;4.09;65.28;99729.72;2197554;81;28834;-64
2021/01/26 13:42:32;;;;;;;56.25;30.50;;;;;;;3.99;65.30;99732.23;2198457;81;31148;-65
2021/01/26 13:45:38;;;;;;;27.40;14.03;;;;;;;3.92;65.29;99725.41;2160317;81;33197;-65
2021/01/26 13:48:40;;;;;;;21.55;12.63;;;;;;;3.84;65.23;99723.01;2157985;82;29097;-63
2021/01/26 13:51:44;;;;;;;27.45;14.87;;;;;;;3.79;64.84;99734.20;2157850;82;27608;-64
2021/01/26 13:54:47;;;;;;;20.30;11.57;;;;;;;3.71;64.45;99734.44;2158487;82;28846;-65
2021/01/26 13:57:50;;;;;;;16.67;10.08;;;;;;;3.65;64.47;99738.58;2194555;80;32041;-63
2021/01/26 14:00:54;;;;;;;14.13;9.05;;;;;;;3.60;64.67;99729.45;2171320;81;34035;-62
2021/01/26 14:03:57;;;;;;;20.02;11.97;;;;;;;3.54;64.55;99731.42;2153832;81;29173;-63
2021/01/26 14:07:00;;;;;;;26.73;12.68;;;;;;;3.49;64.61;99735.55;2214342;80;27604;-64
2021/01/26 14:10:05;;;;;;;19.77;10.48;;;;;;;3.45;64.92;99738.75;2176839;81;28770;-64
2021/01/26 14:13:13;;;;;;;20.50;14.33;;;;;;;3.46;64.95;99739.16;2150803;81;31501;-64
2021/01/26 14:16:15;;;;;;;29.02;14.80;;;;;;;3.51;65.15;99740.34;2138132;83;34058;-64
2021/01/26 14:19:18;;;;;;;25.68;14.45;;;;;;;3.54;65.04;99739.38;2151091;81;30191;-65
2021/01/26 14:22:20;;;;;;;22.70;11.35;;;;;;;3.60;65.21;99744.02;2213905;80;27694;-64
2021/01/26 14:25:24;;;;;;;25.50;12.35;;;;;;;3.62;64.69;99734.25;2170398;80;29816;-62
2021/01/26 14:28:26;;;;;;;27.80;12.63;;;;;;;3.63;64.60;99737.31;2169839;79;31128;-62
2021/01/26 14:31:53;;;;;;;29.57;15.38;;;;;;;3.63;64.75;99738.64;2159857;81;34485;-63
2021/01/26 14:34:57;;;;;;;27.95;14.35;;;;;;;3.60;64.57;99741.84;2075515;85;29173;-61
2021/01/26 14:38:01;;;;;;;34.40;16.85;;;;;;;3.57;64.72;99752.05;2102073;83;27759;-63
2021/01/26 14:41:04;;;;;;;54.42;22.90;;;;;;;3.52;64.84;99746.48;2102346;83;29793;-62
2021/01/26 14:44:06;;;;;;;32.10;16.15;;;;;;;3.45;64.89;99751.98;2125146;83;31137;-62